createdAt,value
2018-09-02T00:00:35.352Z,3.27
2018-09-02T00:03:04.245Z,3.50
2018-09-02T00:05:31.754Z,2.67
2018-09-02T00:07:59.780Z,2.80
2018-09-02T00:10:27.275Z,3.52
2018-09-02T00:12:54.593Z,3.40
2018-09-02T00:15:21.984Z,3.05
2018-09-02T00:17:49.782Z,3.20
2018-09-02T00:20:17.253Z,3.12
2018-09-02T00:22:44.602Z,3.33
2018-09-02T00:25:12.606Z,3.20
2018-09-02T00:27:39.933Z,2.90
2018-09-02T00:30:07.613Z,5.25
2018-09-02T00:32:35.435Z,3.10
2018-09-02T00:35:02.961Z,2.72
2018-09-02T00:37:30.354Z,3.50
2018-09-02T00:39:58.060Z,3.37
2018-09-02T00:42:25.560Z,3.58
2018-09-02T00:44:52.891Z,2.87
2018-09-02T00:47:20.292Z,3.15
2018-09-02T00:49:47.662Z,3.20
2018-09-02T00:52:15.363Z,3.45
2018-09-02T00:54:42.678Z,3.20
2018-09-02T00:57:10.002Z,3.65
2018-09-02T00:59:37.342Z,3.90
2018-09-02T01:02:04.684Z,2.75
2018-09-02T01:04:32.034Z,4.42
2018-09-02T01:06:59.391Z,3.50
2018-09-02T01:09:27.351Z,3.55
2018-09-02T01:11:54.719Z,3.30
2018-09-02T01:14:22.070Z,3.50
2018-09-02T01:16:49.467Z,3.80
2018-09-02T01:19:17.592Z,3.33
2018-09-02T01:21:44.943Z,4.35
2018-09-02T01:24:12.755Z,3.10
2018-09-02T01:26:40.055Z,3.70
2018-09-02T01:29:07.410Z,3.90
2018-09-02T01:31:35.387Z,3.85
2018-09-02T01:34:02.702Z,3.75
2018-09-02T01:36:30.038Z,3.60
2018-09-02T01:38:57.386Z,3.50
2018-09-02T01:41:24.691Z,3.62
2018-09-02T01:43:52.012Z,3.30
2018-09-02T01:46:19.597Z,3.62
2018-09-02T01:48:47.381Z,3.83
2018-09-02T01:51:14.733Z,3.80
2018-09-02T01:53:42.044Z,3.55
2018-09-02T01:56:09.464Z,3.70
2018-09-02T01:58:36.780Z,4.65
2018-09-02T02:01:04.086Z,4.28
2018-09-02T02:03:31.415Z,4.30
2018-09-02T02:05:58.752Z,4.30
2018-09-02T02:08:30.205Z,4.15
2018-09-02T02:10:57.553Z,4.40
2018-09-02T02:13:25.631Z,4.17
2018-09-02T02:15:53.017Z,4.15
2018-09-02T02:18:20.692Z,4.85
2018-09-02T02:20:48.033Z,4.45
2018-09-02T02:23:15.373Z,4.40
2018-09-02T02:25:42.683Z,4.20
2018-09-02T02:28:10.078Z,4.25
2018-09-02T02:30:37.424Z,4.42
2018-09-02T02:33:04.816Z,4.42
2018-09-02T02:35:32.131Z,3.90
2018-09-02T02:37:59.418Z,3.87
2018-09-02T02:40:26.753Z,4.25
2018-09-02T02:42:54.029Z,4.00
2018-09-02T02:45:21.343Z,4.05
2018-09-02T02:47:48.650Z,4.20
2018-09-02T02:50:15.980Z,4.17
2018-09-02T02:52:48.633Z,4.37
2018-09-02T02:55:15.985Z,4.00
2018-09-02T02:57:43.316Z,3.65
2018-09-02T03:00:10.666Z,4.53
2018-09-02T03:02:37.970Z,4.20
2018-09-02T03:05:05.372Z,4.10
2018-09-02T03:07:32.726Z,4.25
2018-09-02T03:10:00.043Z,4.00
2018-09-02T03:12:27.335Z,4.25
2018-09-02T03:14:54.727Z,3.75
2018-09-02T03:17:22.024Z,4.42
2018-09-02T03:19:49.377Z,4.50
2018-09-02T03:22:16.951Z,3.75
2018-09-02T03:24:44.269Z,4.30
2018-09-02T03:27:12.146Z,3.98
2018-09-02T03:29:39.546Z,4.45
2018-09-02T03:32:06.909Z,3.47
2018-09-02T03:34:34.223Z,3.70
2018-09-02T03:37:01.522Z,4.00
2018-09-02T03:39:30.148Z,3.75
2018-09-02T03:41:57.449Z,4.50
2018-09-02T03:44:24.723Z,3.70
2018-09-02T03:46:52.184Z,4.00
2018-09-02T03:49:19.535Z,4.12
2018-09-02T03:51:46.817Z,4.42
2018-09-02T03:54:14.274Z,4.05
2018-09-02T03:56:41.595Z,4.00
2018-09-02T03:59:08.911Z,4.45
2018-09-02T04:01:36.398Z,4.22
2018-09-02T04:04:03.699Z,4.72
2018-09-02T04:06:31.758Z,3.95
2018-09-02T04:08:59.056Z,4.50
2018-09-02T04:11:26.503Z,4.42
2018-09-02T04:13:53.930Z,4.33
2018-09-02T04:16:21.201Z,4.00
2018-09-02T04:18:48.629Z,5.10
2018-09-02T04:21:15.931Z,4.40
2018-09-02T04:23:43.226Z,4.55
2018-09-02T04:26:11.497Z,4.05
2018-09-02T04:28:38.850Z,3.92
2018-09-02T04:31:06.172Z,3.50
2018-09-02T04:33:33.519Z,4.03
2018-09-02T04:36:00.833Z,3.87
2018-09-02T04:38:28.144Z,4.42
2018-09-02T04:40:55.456Z,3.90
2018-09-02T04:43:22.751Z,4.50
2018-09-02T04:45:50.051Z,5.00
2018-09-02T04:48:17.367Z,4.80
2018-09-02T04:50:44.695Z,4.60
2018-09-02T04:53:12.004Z,4.33
2018-09-02T04:55:40.146Z,4.65
2018-09-02T04:58:07.464Z,4.03
2018-09-02T05:00:35.186Z,4.40
2018-09-02T05:03:02.522Z,4.72
2018-09-02T05:05:31.434Z,4.90
2018-09-02T05:07:58.799Z,5.47
2018-09-02T05:10:26.403Z,4.33
2018-09-02T05:12:53.719Z,4.70
2018-09-02T05:15:21.119Z,4.40
2018-09-02T05:17:48.533Z,4.80
2018-09-02T05:20:15.907Z,4.50
2018-09-02T05:22:43.351Z,5.53
2018-09-02T05:25:10.724Z,5.37
2018-09-02T05:27:38.110Z,5.10
2018-09-02T05:30:05.816Z,5.33
2018-09-02T05:32:34.301Z,5.15
2018-09-02T05:35:01.586Z,5.22
2018-09-02T05:37:28.902Z,4.42
2018-09-02T05:39:56.243Z,5.30
2018-09-02T05:42:23.602Z,5.90
2018-09-02T05:44:50.876Z,5.30
2018-09-02T05:47:18.342Z,4.97
2018-09-02T05:49:45.740Z,5.45
2018-09-02T05:52:13.038Z,5.60
2018-09-02T05:54:40.343Z,5.30
2018-09-02T05:57:07.642Z,5.20
2018-09-02T05:59:34.925Z,5.10
2018-09-02T06:02:02.505Z,4.97
2018-09-02T06:04:30.535Z,6.03
2018-09-02T06:06:58.150Z,6.45
2018-09-02T06:09:25.649Z,6.78
2018-09-02T06:11:52.973Z,6.00
2018-09-02T06:14:20.373Z,7.40
2018-09-02T06:16:47.741Z,6.80
2018-09-02T06:19:15.042Z,6.83
2018-09-02T06:21:42.378Z,6.85
2018-09-02T06:24:09.763Z,6.87
2018-09-02T06:26:37.042Z,7.05
2018-09-02T06:29:04.375Z,6.20
2018-09-02T06:31:32.105Z,6.65
2018-09-02T06:33:59.983Z,5.87
2018-09-02T06:36:27.446Z,6.00
2018-09-02T06:38:55.084Z,6.62
2018-09-02T06:41:22.775Z,6.10
2018-09-02T06:43:50.326Z,5.12
2018-09-02T06:46:17.617Z,5.72
2018-09-02T06:48:45.163Z,4.72
2018-09-02T06:51:12.517Z,5.17
2018-09-02T06:53:39.815Z,4.70
2018-09-02T06:56:07.128Z,4.70
2018-09-02T06:58:34.463Z,5.73
2018-09-02T07:01:01.736Z,5.00
2018-09-02T07:03:29.039Z,4.53
2018-09-02T07:05:56.334Z,4.70
2018-09-02T07:08:23.993Z,4.50
2018-09-02T07:10:51.750Z,5.10
2018-09-02T07:13:19.421Z,5.77
2018-09-02T07:15:46.988Z,4.20
2018-09-02T07:18:14.646Z,4.40
2018-09-02T07:20:42.019Z,4.37
2018-09-02T07:23:09.332Z,3.90
2018-09-02T07:25:36.648Z,3.70
2018-09-02T07:28:03.975Z,4.00
2018-09-02T07:30:31.317Z,4.33
2018-09-02T07:32:59.152Z,3.73
2018-09-02T07:35:26.554Z,3.07
2018-09-02T07:37:53.920Z,3.10
2018-09-02T07:40:21.291Z,3.97
2018-09-02T07:42:48.606Z,4.43
2018-09-02T07:45:16.599Z,3.73
2018-09-02T07:47:44.006Z,3.53
2018-09-02T07:50:11.254Z,4.10
2018-09-02T07:52:38.606Z,3.00
2018-09-02T07:55:06.322Z,3.47
2018-09-02T07:57:33.624Z,2.97
2018-09-02T08:00:00.940Z,3.13
2018-09-02T08:02:28.220Z,3.63
2018-09-02T08:04:55.543Z,3.47
2018-09-02T08:07:22.852Z,3.47
2018-09-02T08:09:50.347Z,3.40
2018-09-02T08:12:17.768Z,3.17
2018-09-02T08:14:45.071Z,3.30
2018-09-02T08:17:12.578Z,3.27
2018-09-02T08:19:39.960Z,3.17
2018-09-02T08:22:07.326Z,4.47
2018-09-02T08:24:35.563Z,3.90
2018-09-02T08:27:02.918Z,3.37
2018-09-02T08:29:30.966Z,3.60
2018-09-02T08:31:58.307Z,3.53
2018-09-02T08:34:25.625Z,3.03
2018-09-02T08:36:52.959Z,3.03
2018-09-02T08:39:20.297Z,2.97
2018-09-02T08:41:47.667Z,3.30
2018-09-02T08:44:15.029Z,3.30
2018-09-02T08:46:42.363Z,3.07
2018-09-02T08:49:09.634Z,3.50
2018-09-02T08:51:36.942Z,3.23
2018-09-02T08:54:04.287Z,2.70
2018-09-02T08:56:31.596Z,2.40
2018-09-02T08:58:58.955Z,2.90
2018-09-02T09:01:26.255Z,2.60
2018-09-02T09:03:53.880Z,2.63
2018-09-02T09:06:21.236Z,2.53
2018-09-02T09:08:48.729Z,2.33
2018-09-02T09:11:15.874Z,2.63
2018-09-02T09:13:43.169Z,3.00
2018-09-02T09:16:10.527Z,2.50
2018-09-02T09:18:37.798Z,2.70
2018-09-02T09:21:05.375Z,3.13
2018-09-02T09:23:32.682Z,2.53
2018-09-02T09:26:00.034Z,3.70
2018-09-02T09:28:27.344Z,2.70
2018-09-02T09:30:54.914Z,2.60
2018-09-02T09:33:22.235Z,2.60
2018-09-02T09:35:49.493Z,2.67
2018-09-02T09:38:16.774Z,2.73
2018-09-02T09:40:44.098Z,3.10
2018-09-02T09:43:11.429Z,2.77
2018-09-02T09:45:38.709Z,2.70
2018-09-02T09:48:06.059Z,3.37
2018-09-02T09:50:33.326Z,2.53
2018-09-02T09:53:00.611Z,2.50
2018-09-02T09:55:28.573Z,2.57
2018-09-02T09:57:56.549Z,3.37
2018-09-02T10:00:29.174Z,2.50
2018-09-02T10:02:56.515Z,2.67
2018-09-02T10:05:23.845Z,3.07
2018-09-02T10:07:51.627Z,2.83
2018-09-02T10:10:27.607Z,3.00
2018-09-02T10:16:02.124Z,2.43
2018-09-02T10:18:32.993Z,2.80
2018-09-02T10:21:02.519Z,2.70
2018-09-02T10:23:29.845Z,2.20
2018-09-02T10:25:57.171Z,2.77
2018-09-02T10:28:24.494Z,2.37
2018-09-02T10:30:51.871Z,2.70
2018-09-02T10:33:19.320Z,3.47
2018-09-02T10:35:46.609Z,2.93
2018-09-02T10:38:13.916Z,2.50
2018-09-02T10:40:41.493Z,2.57
2018-09-02T10:43:08.800Z,2.97
2018-09-02T10:45:36.144Z,2.73
2018-09-02T10:48:03.486Z,2.67
2018-09-02T10:50:31.852Z,2.27
2018-09-02T10:52:59.215Z,2.60
2018-09-02T10:55:26.528Z,2.60
2018-09-02T10:57:54.057Z,2.30
2018-09-02T11:00:21.397Z,2.60
2018-09-02T11:02:48.902Z,2.80
2018-09-02T11:05:16.256Z,2.80
2018-09-02T11:07:44.385Z,2.40
2018-09-02T11:10:11.696Z,2.90
2018-09-02T11:12:39.220Z,2.90
2018-09-02T11:15:07.488Z,2.73
2018-09-02T11:17:34.859Z,2.70
2018-09-02T11:20:02.398Z,2.47
2018-09-02T11:22:29.708Z,2.57
2018-09-02T11:24:57.074Z,2.73
2018-09-02T11:27:24.455Z,2.70
2018-09-02T11:29:51.797Z,3.00
2018-09-02T11:32:19.982Z,2.47
2018-09-02T11:34:47.359Z,2.20
2018-09-02T11:37:14.646Z,2.87
2018-09-02T11:39:42.059Z,2.40
2018-09-02T11:42:09.448Z,2.30
2018-09-02T11:44:37.874Z,3.30
2018-09-02T11:47:05.587Z,2.90
2018-09-02T11:49:33.684Z,2.53
2018-09-02T11:52:01.156Z,2.70
2018-09-02T11:54:28.642Z,2.70
2018-09-02T11:56:55.987Z,3.40
2018-09-02T11:59:23.329Z,2.50
2018-09-02T12:01:50.821Z,3.03
2018-09-02T12:04:18.482Z,2.30
2018-09-02T12:06:45.840Z,2.50
2018-09-02T12:09:13.258Z,2.80
2018-09-02T12:11:41.495Z,2.67
2018-09-02T12:14:09.476Z,2.53
2018-09-02T12:16:36.877Z,2.40
2018-09-02T12:19:04.648Z,2.10
2018-09-02T12:21:36.471Z,2.27
2018-09-02T12:24:03.819Z,2.70
2018-09-02T12:26:31.176Z,3.03
2018-09-02T12:28:59.295Z,3.10
2018-09-02T12:31:27.255Z,2.27
2018-09-02T12:33:54.563Z,2.30
2018-09-02T12:36:21.858Z,2.40
2018-09-02T12:38:54.192Z,2.40
2018-09-02T12:41:21.679Z,2.43
2018-09-02T12:43:50.320Z,3.03
2018-09-02T12:46:17.695Z,2.13
2018-09-02T12:48:45.123Z,2.67
2018-09-02T12:51:12.932Z,2.40
2018-09-02T12:53:44.474Z,2.47
2018-09-02T12:56:12.333Z,2.60
2018-09-02T12:58:39.681Z,2.37
2018-09-02T13:01:07.103Z,2.90
2018-09-02T13:03:34.668Z,3.07
2018-09-02T13:06:02.431Z,2.70
2018-09-02T13:08:29.875Z,2.53
2018-09-02T13:10:58.110Z,2.90
2018-09-02T13:13:26.393Z,2.87
2018-09-02T13:15:53.758Z,2.67
2018-09-02T13:18:21.118Z,2.70
2018-09-02T13:20:48.401Z,2.27
2018-09-02T13:23:15.801Z,2.87
2018-09-02T13:25:43.194Z,2.50
2018-09-02T13:28:11.077Z,2.50
2018-09-02T13:30:38.418Z,2.53
2018-09-02T13:33:05.994Z,2.30
2018-09-02T13:35:34.318Z,2.40
2018-09-02T13:38:02.315Z,2.43
2018-09-02T13:40:29.879Z,2.63
2018-09-02T13:42:57.955Z,2.53
2018-09-02T13:45:25.285Z,2.00
2018-09-02T13:47:52.709Z,2.40
2018-09-02T13:50:20.082Z,2.40
2018-09-02T13:52:47.394Z,2.20
2018-09-02T13:55:14.851Z,2.40
2018-09-02T13:57:42.305Z,2.30
2018-09-02T14:00:09.628Z,2.30
2018-09-02T14:02:36.956Z,2.37
2018-09-02T14:05:04.342Z,2.20
2018-09-02T14:07:31.719Z,2.00
2018-09-02T14:09:59.151Z,1.90
2018-09-02T14:12:26.627Z,2.03
2018-09-02T14:14:54.110Z,2.47
2018-09-02T14:17:21.494Z,2.93
2018-09-02T14:19:48.839Z,2.70
2018-09-02T14:22:20.750Z,2.73
2018-09-02T14:24:48.083Z,2.20
2018-09-02T14:27:15.437Z,2.47
2018-09-02T14:29:42.808Z,2.40
2018-09-02T14:32:10.159Z,2.53
2018-09-02T14:34:37.485Z,2.13
2018-09-02T14:37:05.317Z,2.57
2018-09-02T14:39:32.706Z,2.40
2018-09-02T14:42:00.012Z,2.47
2018-09-02T14:44:27.338Z,2.57
2018-09-02T14:46:54.653Z,2.20
2018-09-02T14:49:22.029Z,2.43
2018-09-02T14:51:49.445Z,2.50
2018-09-02T14:54:16.849Z,2.80
2018-09-02T14:56:44.149Z,2.40
2018-09-02T14:59:16.007Z,2.00
2018-09-02T15:01:43.505Z,2.90
2018-09-02T15:04:10.990Z,3.00
2018-09-02T15:06:42.668Z,2.20
2018-09-02T15:09:10.428Z,2.33
2018-09-02T15:11:37.934Z,2.50
2018-09-02T15:14:05.373Z,2.43
2018-09-02T15:16:36.714Z,3.20
2018-09-02T15:19:04.114Z,2.50
2018-09-02T15:21:31.635Z,2.77
2018-09-02T15:23:59.735Z,2.17
2018-09-02T15:26:27.667Z,2.30
2018-09-02T15:28:55.043Z,2.30
2018-09-02T15:31:26.616Z,3.13
2018-09-02T15:33:53.956Z,2.83
2018-09-02T15:36:22.227Z,2.50
2018-09-02T15:38:49.604Z,2.53
2018-09-02T15:41:16.965Z,2.50
2018-09-02T15:43:48.673Z,2.20
2018-09-02T15:46:16.063Z,2.40
2018-09-02T15:48:43.317Z,2.10
2018-09-02T15:51:10.625Z,2.70
2018-09-02T15:53:37.935Z,2.50
2018-09-02T15:56:05.319Z,2.80
2018-09-02T15:58:33.391Z,2.67
2018-09-02T16:01:00.782Z,2.43
2018-09-02T16:03:28.090Z,3.70
2018-09-02T16:05:55.460Z,2.53
2018-09-02T16:08:22.786Z,4.47
2018-09-02T16:10:50.154Z,2.20
2018-09-02T16:13:19.434Z,2.27
2018-09-02T16:15:46.792Z,2.70
2018-09-02T16:18:14.213Z,2.20
2018-09-02T16:20:42.049Z,2.00
2018-09-02T16:23:09.443Z,2.10
2018-09-02T16:25:36.836Z,2.37
2018-09-02T16:28:04.205Z,2.60
2018-09-02T16:30:31.597Z,2.30
2018-09-02T16:32:59.272Z,2.70
2018-09-02T16:35:27.117Z,2.80
2018-09-02T16:37:56.629Z,2.50
2018-09-02T16:40:23.971Z,2.53
2018-09-02T16:42:52.137Z,2.33
2018-09-02T16:45:19.521Z,2.57
2018-09-02T16:50:14.066Z,2.50
2018-09-02T16:52:41.414Z,1.90
2018-09-02T16:55:09.606Z,2.30
2018-09-02T16:57:37.095Z,2.37
2018-09-02T17:00:05.497Z,3.33
2018-09-02T17:02:33.582Z,2.90
2018-09-02T17:05:04.595Z,2.53
2018-09-02T17:07:36.177Z,3.07
2018-09-02T17:10:03.614Z,2.67
2018-09-02T17:12:31.121Z,2.57
2018-09-02T17:14:58.503Z,2.00
2018-09-02T17:17:25.987Z,2.57
2018-09-02T17:19:56.018Z,2.60
2018-09-02T17:22:23.462Z,2.70
2018-09-02T17:24:50.964Z,2.10
2018-09-02T17:27:18.317Z,2.43
2018-09-02T17:29:45.697Z,2.80
2018-09-02T17:32:15.466Z,2.70
2018-09-02T17:34:42.902Z,2.30
2018-09-02T17:37:10.384Z,2.50
2018-09-02T17:39:37.756Z,2.97
2018-09-02T17:42:05.230Z,2.80
2018-09-02T17:44:32.576Z,2.60
2018-09-02T17:46:59.971Z,2.60
2018-09-02T17:49:27.353Z,3.20
2018-09-02T17:51:54.961Z,2.57
2018-09-02T17:54:22.327Z,2.37
2018-09-02T17:56:49.798Z,2.60
2018-09-02T17:59:17.144Z,2.77
2018-09-02T18:01:44.596Z,2.70
2018-09-02T18:04:11.960Z,2.63
2018-09-02T18:06:39.444Z,2.53
2018-09-02T18:09:07.616Z,2.40
2018-09-02T18:11:35.100Z,2.40
2018-09-02T18:14:03.195Z,2.07
2018-09-02T18:16:31.697Z,2.20
2018-09-02T18:18:59.296Z,2.70
2018-09-02T18:21:26.760Z,2.70
2018-09-02T18:23:54.244Z,2.03
2018-09-02T18:26:21.753Z,2.00
2018-09-02T18:28:49.801Z,2.50
2018-09-02T18:31:17.428Z,2.50
2018-09-02T18:33:44.849Z,2.50
2018-09-02T18:36:12.382Z,2.27
2018-09-02T18:38:40.212Z,2.53
2018-09-02T18:41:12.532Z,2.90
2018-09-02T18:43:41.331Z,2.87
2018-09-02T18:46:10.400Z,2.60
2018-09-02T18:48:39.589Z,2.33
2018-09-02T18:51:08.720Z,2.60
2018-09-02T18:53:36.119Z,2.37
2018-09-02T18:56:03.507Z,3.10
2018-09-02T18:58:30.935Z,2.70
2018-09-02T19:00:58.304Z,3.30
2018-09-02T19:03:25.706Z,3.00
2018-09-02T19:05:53.091Z,2.60
2018-09-02T19:08:22.143Z,2.60
2018-09-02T19:10:49.874Z,2.42
2018-09-02T19:13:21.522Z,2.80
2018-09-02T19:18:19.708Z,2.50
2018-09-02T19:20:47.179Z,2.77
2018-09-02T19:23:14.571Z,2.30
2018-09-02T19:25:42.288Z,2.70
2018-09-02T19:28:09.754Z,2.70
2018-09-02T19:30:37.654Z,2.80
2018-09-02T19:33:06.196Z,2.67
2018-09-02T19:35:33.660Z,2.50
2018-09-02T19:38:01.056Z,2.67
2018-09-02T19:40:28.594Z,2.20
2018-09-02T19:42:56.141Z,2.57
2018-09-02T19:45:23.622Z,2.27
2018-09-02T19:50:18.724Z,2.57
2018-09-02T19:52:46.015Z,2.73
2018-09-02T19:55:13.502Z,4.10
2018-09-02T19:57:40.869Z,3.23
2018-09-02T20:00:08.934Z,3.00
2018-09-02T20:02:36.306Z,2.67
2018-09-02T20:05:08.511Z,2.80
2018-09-02T20:07:36.884Z,2.50
2018-09-02T20:10:04.843Z,2.40
2018-09-02T20:12:32.259Z,3.17
2018-09-02T20:14:59.846Z,2.63
2018-09-02T20:17:27.207Z,2.50
2018-09-02T20:19:54.607Z,2.80
2018-09-02T20:22:21.955Z,2.77
2018-09-02T20:24:49.362Z,2.70
2018-09-02T20:27:20.915Z,3.73
2018-09-02T20:29:49.372Z,3.03
2018-09-02T20:32:16.763Z,3.20
2018-09-02T20:34:44.843Z,2.83
2018-09-02T20:37:12.238Z,2.97
2018-09-02T20:39:39.574Z,2.40
2018-09-02T20:42:06.949Z,3.37
2018-09-02T20:44:34.854Z,3.00
2018-09-02T20:47:02.226Z,3.03
2018-09-02T20:49:29.548Z,2.80
2018-09-02T20:51:56.921Z,3.43
2018-09-02T20:54:25.030Z,2.80
2018-09-02T20:56:52.933Z,2.80
2018-09-02T20:59:20.302Z,3.00
2018-09-02T21:01:48.401Z,2.80
2018-09-02T21:04:15.699Z,3.00
2018-09-02T21:06:47.302Z,2.90
2018-09-02T21:09:16.346Z,3.10
2018-09-02T21:11:44.329Z,2.90
2018-09-02T21:14:16.996Z,3.63
2018-09-02T21:16:44.939Z,3.97
2018-09-02T21:19:12.323Z,3.17
2018-09-02T21:21:39.677Z,3.80
2018-09-02T21:24:07.015Z,3.37
2018-09-02T21:26:35.177Z,3.27
2018-09-02T21:29:02.742Z,3.47
2018-09-02T21:31:30.412Z,2.87
2018-09-02T21:33:57.768Z,3.23
2018-09-02T21:36:25.475Z,3.15
2018-09-02T21:38:53.375Z,3.65
2018-09-02T21:41:20.678Z,3.30
2018-09-02T21:43:48.135Z,3.10
2018-09-02T21:46:16.302Z,3.47
2018-09-02T21:48:43.856Z,3.22
2018-09-02T21:53:42.470Z,3.60
2018-09-02T21:56:10.452Z,3.50
2018-09-02T21:58:38.413Z,4.10
2018-09-02T22:01:10.632Z,3.55
2018-09-02T22:03:42.451Z,3.45
2018-09-02T22:06:09.757Z,4.30
2018-09-02T22:08:37.126Z,3.70
2018-09-02T22:11:04.822Z,3.83
2018-09-02T22:13:32.617Z,4.20
2018-09-02T22:15:59.964Z,3.97
2018-09-02T22:18:27.228Z,3.83
2018-09-02T22:20:54.529Z,3.90
2018-09-02T22:23:21.971Z,4.20
2018-09-02T22:25:49.318Z,4.50
2018-09-02T22:28:16.727Z,4.10
2018-09-02T22:30:44.854Z,3.70
2018-09-02T22:33:12.239Z,3.60
2018-09-02T22:35:43.754Z,4.23
2018-09-02T22:38:12.234Z,3.90
2018-09-02T22:40:40.138Z,4.30
2018-09-02T22:43:07.445Z,3.20
2018-09-02T22:45:34.862Z,5.00
2018-09-02T22:48:02.515Z,3.52
2018-09-02T22:50:30.082Z,4.50
2018-09-02T22:52:57.995Z,4.30
2018-09-02T22:55:25.363Z,3.90
2018-09-02T22:57:52.978Z,3.87
2018-09-02T23:00:20.264Z,4.60
2018-09-02T23:02:47.571Z,3.40
2018-09-02T23:05:14.952Z,5.53
2018-09-02T23:07:42.304Z,3.95
2018-09-02T23:10:09.690Z,4.10
2018-09-02T23:12:37.050Z,3.60
2018-09-02T23:15:04.468Z,4.65
2018-09-02T23:17:31.754Z,4.13
2018-09-02T23:20:05.720Z,5.10
2018-09-02T23:22:33.024Z,3.80
2018-09-02T23:25:00.871Z,4.23
2018-09-02T23:27:28.339Z,5.00
2018-09-02T23:29:56.371Z,3.83
2018-09-02T23:32:28.032Z,3.83
2018-09-02T23:34:55.382Z,6.17
2018-09-02T23:37:22.747Z,4.83
2018-09-02T23:39:50.740Z,4.70
2018-09-02T23:42:18.346Z,4.27
2018-09-02T23:44:45.754Z,4.97
2018-09-02T23:47:13.073Z,4.37
2018-09-02T23:49:40.822Z,4.80
2018-09-02T23:52:08.125Z,4.43
2018-09-02T23:54:35.787Z,4.10
2018-09-02T23:57:03.317Z,3.53
2018-09-02T23:59:30.678Z,4.30
